sensor_id;sensor_type;location;lat;lon;timestamp;P1;durP1;ratioP1;P2;durP2;ratioP2
48651;SDS011;34442;52.362;-1.302;2024-02-26T00:00:37;7.18;;;2.15;;
48651;SDS011;34442;52.362;-1.302;2024-02-26T00:03:02;6.32;;;2.10;;
48651;SDS011;34442;52.362;-1.302;2024-02-26T00:05:28;7.40;;;2.40;;
48651;SDS011;34442;52.362;-1.302;2024-02-26T00:07:53;4.75;;;2.08;;
48651;SDS011;34442;52.362;-1.302;2024-02-26T00:10:19;4.63;;;2.28;;
48651;SDS011;34442;52.362;-1.302;2024-02-26T00:12:44;8.07;;;2.58;;
48651;SDS011;34442;52.362;-1.302;2024-02-26T00:15:10;4.53;;;2.33;;
48651;SDS011;34442;52.362;-1.302;2024-02-26T00:17:36;5.50;;;2.40;;
48651;SDS011;34442;52.362;-1.302;2024-02-26T00:20:02;3.85;;;1.90;;
48651;SDS011;34442;52.362;-1.302;2024-02-26T00:22:33;4.18;;;2.10;;
48651;SDS011;34442;52.362;-1.302;2024-02-26T00:24:58;4.55;;;1.75;;
48651;SDS011;34442;52.362;-1.302;2024-02-26T00:27:24;5.22;;;2.80;;
48651;SDS011;34442;52.362;-1.302;2024-02-26T00:29:49;5.80;;;2.70;;
48651;SDS011;34442;52.362;-1.302;2024-02-26T00:32:15;5.25;;;2.80;;
48651;SDS011;34442;52.362;-1.302;2024-02-26T00:34:40;6.10;;;3.30;;
48651;SDS011;34442;52.362;-1.302;2024-02-26T00:37:05;8.38;;;3.20;;
48651;SDS011;34442;52.362;-1.302;2024-02-26T00:39:31;9.60;;;3.50;;
48651;SDS011;34442;52.362;-1.302;2024-02-26T00:41:56;7.95;;;3.15;;
48651;SDS011;34442;52.362;-1.302;2024-02-26T00:44:22;8.93;;;2.80;;
48651;SDS011;34442;52.362;-1.302;2024-02-26T00:46:47;9.70;;;3.80;;
48651;SDS011;34442;52.362;-1.302;2024-02-26T00:49:13;8.73;;;2.55;;
48651;SDS011;34442;52.362;-1.302;2024-02-26T00:51:38;5.63;;;2.97;;
48651;SDS011;34442;52.362;-1.302;2024-02-26T00:54:03;5.15;;;2.38;;
48651;SDS011;34442;52.362;-1.302;2024-02-26T00:56:29;6.68;;;2.72;;
48651;SDS011;34442;52.362;-1.302;2024-02-26T00:58:54;5.35;;;3.05;;
48651;SDS011;34442;52.362;-1.302;2024-02-26T01:01:20;4.88;;;2.63;;
48651;SDS011;34442;52.362;-1.302;2024-02-26T01:03:45;7.60;;;3.53;;
48651;SDS011;34442;52.362;-1.302;2024-02-26T01:06:11;8.07;;;2.50;;
48651;SDS011;34442;52.362;-1.302;2024-02-26T01:08:36;8.07;;;2.40;;
48651;SDS011;34442;52.362;-1.302;2024-02-26T01:11:02;8.68;;;4.53;;
48651;SDS011;34442;52.362;-1.302;2024-02-26T01:13:28;6.63;;;3.53;;
48651;SDS011;34442;52.362;-1.302;2024-02-26T01:15:53;6.97;;;2.65;;
48651;SDS011;34442;52.362;-1.302;2024-02-26T01:18:19;5.53;;;2.28;;
48651;SDS011;34442;52.362;-1.302;2024-02-26T01:20:44;4.93;;;2.00;;
48651;SDS011;34442;52.362;-1.302;2024-02-26T01:23:10;3.90;;;1.88;;
48651;SDS011;34442;52.362;-1.302;2024-02-26T01:25:35;6.25;;;2.42;;
48651;SDS011;34442;52.362;-1.302;2024-02-26T01:28:01;4.47;;;2.17;;
48651;SDS011;34442;52.362;-1.302;2024-02-26T01:30:28;4.43;;;2.40;;
48651;SDS011;34442;52.362;-1.302;2024-02-26T01:32:53;4.70;;;2.28;;
48651;SDS011;34442;52.362;-1.302;2024-02-26T01:35:19;8.68;;;2.30;;
48651;SDS011;34442;52.362;-1.302;2024-02-26T01:37:45;6.28;;;2.35;;
48651;SDS011;34442;52.362;-1.302;2024-02-26T01:40:10;5.00;;;2.28;;
48651;SDS011;34442;52.362;-1.302;2024-02-26T01:42:39;4.82;;;2.50;;
48651;SDS011;34442;52.362;-1.302;2024-02-26T01:45:05;6.13;;;2.65;;
48651;SDS011;34442;52.362;-1.302;2024-02-26T01:47:35;4.10;;;2.03;;
48651;SDS011;34442;52.362;-1.302;2024-02-26T01:50:00;9.93;;;2.33;;
48651;SDS011;34442;52.362;-1.302;2024-02-26T01:52:26;6.05;;;2.47;;
48651;SDS011;34442;52.362;-1.302;2024-02-26T01:54:51;5.93;;;2.10;;
48651;SDS011;34442;52.362;-1.302;2024-02-26T01:57:17;6.25;;;2.38;;
48651;SDS011;34442;52.362;-1.302;2024-02-26T01:59:43;7.15;;;2.20;;
48651;SDS011;34442;52.362;-1.302;2024-02-26T02:02:09;6.72;;;1.98;;
48651;SDS011;34442;52.362;-1.302;2024-02-26T02:04:36;4.22;;;2.13;;
48651;SDS011;34442;52.362;-1.302;2024-02-26T02:07:02;3.95;;;2.00;;
48651;SDS011;34442;52.362;-1.302;2024-02-26T02:09:28;5.28;;;2.08;;
48651;SDS011;34442;52.362;-1.302;2024-02-26T02:11:54;3.55;;;1.55;;
48651;SDS011;34442;52.362;-1.302;2024-02-26T02:14:20;5.03;;;1.58;;
48651;SDS011;34442;52.362;-1.302;2024-02-26T02:16:47;7.03;;;1.80;;
48651;SDS011;34442;52.362;-1.302;2024-02-26T02:19:14;9.25;;;2.40;;
48651;SDS011;34442;52.362;-1.302;2024-02-26T02:21:39;8.07;;;1.92;;
48651;SDS011;34442;52.362;-1.302;2024-02-26T02:24:04;4.97;;;2.00;;
48651;SDS011;34442;52.362;-1.302;2024-02-26T02:26:30;5.38;;;1.95;;
48651;SDS011;34442;52.362;-1.302;2024-02-26T02:28:56;5.57;;;2.35;;
48651;SDS011;34442;52.362;-1.302;2024-02-26T02:31:21;6.65;;;2.92;;
48651;SDS011;34442;52.362;-1.302;2024-02-26T02:33:50;6.60;;;2.30;;
48651;SDS011;34442;52.362;-1.302;2024-02-26T02:36:15;5.40;;;2.75;;
48651;SDS011;34442;52.362;-1.302;2024-02-26T02:38:50;9.35;;;3.60;;
48651;SDS011;34442;52.362;-1.302;2024-02-26T02:41:16;7.15;;;2.38;;
48651;SDS011;34442;52.362;-1.302;2024-02-26T02:43:41;8.13;;;3.03;;
48651;SDS011;34442;52.362;-1.302;2024-02-26T02:46:07;8.45;;;2.70;;
48651;SDS011;34442;52.362;-1.302;2024-02-26T02:48:32;4.15;;;2.25;;
48651;SDS011;34442;52.362;-1.302;2024-02-26T02:50:57;7.28;;;2.78;;
48651;SDS011;34442;52.362;-1.302;2024-02-26T02:53:23;8.25;;;3.80;;
48651;SDS011;34442;52.362;-1.302;2024-02-26T02:55:48;8.15;;;2.65;;
48651;SDS011;34442;52.362;-1.302;2024-02-26T02:58:14;7.55;;;3.08;;
48651;SDS011;34442;52.362;-1.302;2024-02-26T03:00:39;7.97;;;3.58;;
48651;SDS011;34442;52.362;-1.302;2024-02-26T03:03:05;6.05;;;3.20;;
48651;SDS011;34442;52.362;-1.302;2024-02-26T03:05:30;5.10;;;2.90;;
48651;SDS011;34442;52.362;-1.302;2024-02-26T03:07:55;6.65;;;3.20;;
48651;SDS011;34442;52.362;-1.302;2024-02-26T03:10:21;5.78;;;3.08;;
48651;SDS011;34442;52.362;-1.302;2024-02-26T03:12:46;8.88;;;3.90;;
48651;SDS011;34442;52.362;-1.302;2024-02-26T03:15:12;4.82;;;3.10;;
48651;SDS011;34442;52.362;-1.302;2024-02-26T03:17:37;7.05;;;3.28;;
48651;SDS011;34442;52.362;-1.302;2024-02-26T03:20:02;7.70;;;3.67;;
48651;SDS011;34442;52.362;-1.302;2024-02-26T03:22:30;9.32;;;3.53;;
48651;SDS011;34442;52.362;-1.302;2024-02-26T03:24:55;6.45;;;3.55;;
48651;SDS011;34442;52.362;-1.302;2024-02-26T03:27:21;8.85;;;3.85;;
48651;SDS011;34442;52.362;-1.302;2024-02-26T03:29:46;6.15;;;2.60;;
48651;SDS011;34442;52.362;-1.302;2024-02-26T03:32:13;6.53;;;3.28;;
48651;SDS011;34442;52.362;-1.302;2024-02-26T03:34:38;7.95;;;3.03;;
48651;SDS011;34442;52.362;-1.302;2024-02-26T03:37:06;8.07;;;3.17;;
48651;SDS011;34442;52.362;-1.302;2024-02-26T03:39:35;4.78;;;2.60;;
48651;SDS011;34442;52.362;-1.302;2024-02-26T03:42:00;7.88;;;3.30;;
48651;SDS011;34442;52.362;-1.302;2024-02-26T03:44:27;7.60;;;2.83;;
48651;SDS011;34442;52.362;-1.302;2024-02-26T03:46:52;5.65;;;3.08;;
48651;SDS011;34442;52.362;-1.302;2024-02-26T03:49:17;5.65;;;3.08;;
48651;SDS011;34442;52.362;-1.302;2024-02-26T03:51:43;7.70;;;3.45;;
48651;SDS011;34442;52.362;-1.302;2024-02-26T03:54:08;8.27;;;3.28;;
48651;SDS011;34442;52.362;-1.302;2024-02-26T03:56:34;6.80;;;3.13;;
48651;SDS011;34442;52.362;-1.302;2024-02-26T03:58:59;8.27;;;3.10;;
48651;SDS011;34442;52.362;-1.302;2024-02-26T04:01:26;7.70;;;3.17;;
48651;SDS011;34442;52.362;-1.302;2024-02-26T04:03:52;6.57;;;2.58;;
48651;SDS011;34442;52.362;-1.302;2024-02-26T04:06:18;7.68;;;2.85;;
48651;SDS011;34442;52.362;-1.302;2024-02-26T04:08:45;4.75;;;2.53;;
48651;SDS011;34442;52.362;-1.302;2024-02-26T04:11:11;9.15;;;3.20;;
48651;SDS011;34442;52.362;-1.302;2024-02-26T04:13:37;5.75;;;2.60;;
48651;SDS011;34442;52.362;-1.302;2024-02-26T04:16:04;7.05;;;2.58;;
48651;SDS011;34442;52.362;-1.302;2024-02-26T04:18:30;7.65;;;2.35;;
48651;SDS011;34442;52.362;-1.302;2024-02-26T04:20:56;6.05;;;2.35;;
48651;SDS011;34442;52.362;-1.302;2024-02-26T04:23:22;4.15;;;1.95;;
48651;SDS011;34442;52.362;-1.302;2024-02-26T04:25:47;4.13;;;1.83;;
48651;SDS011;34442;52.362;-1.302;2024-02-26T04:28:13;4.47;;;2.10;;
48651;SDS011;34442;52.362;-1.302;2024-02-26T04:30:38;7.97;;;3.00;;
48651;SDS011;34442;52.362;-1.302;2024-02-26T04:33:04;4.70;;;1.88;;
48651;SDS011;34442;52.362;-1.302;2024-02-26T04:35:30;4.47;;;1.88;;
48651;SDS011;34442;52.362;-1.302;2024-02-26T04:37:55;4.35;;;1.80;;
48651;SDS011;34442;52.362;-1.302;2024-02-26T04:40:21;3.35;;;1.80;;
48651;SDS011;34442;52.362;-1.302;2024-02-26T04:42:46;5.22;;;2.00;;
48651;SDS011;34442;52.362;-1.302;2024-02-26T04:45:12;3.75;;;1.60;;
48651;SDS011;34442;52.362;-1.302;2024-02-26T04:47:37;6.13;;;2.38;;
48651;SDS011;34442;52.362;-1.302;2024-02-26T04:50:03;6.13;;;1.95;;
48651;SDS011;34442;52.362;-1.302;2024-02-26T04:52:29;4.25;;;1.88;;
48651;SDS011;34442;52.362;-1.302;2024-02-26T04:54:54;4.32;;;1.40;;
48651;SDS011;34442;52.362;-1.302;2024-02-26T04:57:20;2.63;;;1.45;;
48651;SDS011;34442;52.362;-1.302;2024-02-26T04:59:46;4.60;;;1.20;;
48651;SDS011;34442;52.362;-1.302;2024-02-26T05:02:12;4.72;;;1.58;;
48651;SDS011;34442;52.362;-1.302;2024-02-26T05:04:38;6.15;;;1.75;;
48651;SDS011;34442;52.362;-1.302;2024-02-26T05:07:03;6.20;;;2.17;;
48651;SDS011;34442;52.362;-1.302;2024-02-26T05:09:29;5.50;;;1.73;;
48651;SDS011;34442;52.362;-1.302;2024-02-26T05:11:54;3.50;;;1.23;;
48651;SDS011;34442;52.362;-1.302;2024-02-26T05:14:20;6.40;;;2.00;;
48651;SDS011;34442;52.362;-1.302;2024-02-26T05:16:45;5.53;;;1.55;;
48651;SDS011;34442;52.362;-1.302;2024-02-26T05:19:11;4.70;;;1.42;;
48651;SDS011;34442;52.362;-1.302;2024-02-26T05:21:36;3.13;;;1.30;;
48651;SDS011;34442;52.362;-1.302;2024-02-26T05:24:02;3.65;;;1.20;;
48651;SDS011;34442;52.362;-1.302;2024-02-26T05:26:27;3.15;;;1.63;;
48651;SDS011;34442;52.362;-1.302;2024-02-26T05:28:55;4.25;;;1.65;;
48651;SDS011;34442;52.362;-1.302;2024-02-26T05:31:24;7.15;;;1.80;;
48651;SDS011;34442;52.362;-1.302;2024-02-26T05:33:50;6.07;;;1.80;;
48651;SDS011;34442;52.362;-1.302;2024-02-26T05:36:19;8.30;;;1.98;;
48651;SDS011;34442;52.362;-1.302;2024-02-26T05:38:48;4.28;;;1.40;;
48651;SDS011;34442;52.362;-1.302;2024-02-26T05:41:16;5.18;;;1.85;;
48651;SDS011;34442;52.362;-1.302;2024-02-26T05:43:48;4.25;;;1.60;;
48651;SDS011;34442;52.362;-1.302;2024-02-26T05:46:16;4.80;;;1.55;;
48651;SDS011;34442;52.362;-1.302;2024-02-26T05:48:49;3.65;;;1.83;;
48651;SDS011;34442;52.362;-1.302;2024-02-26T05:51:16;2.88;;;1.38;;
48651;SDS011;34442;52.362;-1.302;2024-02-26T05:53:41;3.78;;;1.40;;
48651;SDS011;34442;52.362;-1.302;2024-02-26T05:56:07;2.28;;;1.30;;
48651;SDS011;34442;52.362;-1.302;2024-02-26T05:58:32;2.53;;;1.30;;
48651;SDS011;34442;52.362;-1.302;2024-02-26T06:00:58;3.33;;;1.45;;
48651;SDS011;34442;52.362;-1.302;2024-02-26T06:03:25;3.08;;;1.25;;
48651;SDS011;34442;52.362;-1.302;2024-02-26T06:05:50;4.93;;;1.58;;
48651;SDS011;34442;52.362;-1.302;2024-02-26T06:08:16;3.60;;;1.48;;
48651;SDS011;34442;52.362;-1.302;2024-02-26T06:10:41;1.77;;;1.20;;
48651;SDS011;34442;52.362;-1.302;2024-02-26T06:13:06;4.68;;;2.00;;
48651;SDS011;34442;52.362;-1.302;2024-02-26T06:15:32;8.48;;;2.33;;
48651;SDS011;34442;52.362;-1.302;2024-02-26T06:17:57;3.05;;;1.15;;
48651;SDS011;34442;52.362;-1.302;2024-02-26T06:20:23;3.80;;;1.55;;
48651;SDS011;34442;52.362;-1.302;2024-02-26T06:22:48;5.50;;;1.58;;
48651;SDS011;34442;52.362;-1.302;2024-02-26T06:25:14;5.28;;;1.92;;
48651;SDS011;34442;52.362;-1.302;2024-02-26T06:27:39;3.40;;;1.70;;
48651;SDS011;34442;52.362;-1.302;2024-02-26T06:30:05;3.15;;;1.42;;
48651;SDS011;34442;52.362;-1.302;2024-02-26T06:32:31;4.20;;;1.92;;
48651;SDS011;34442;52.362;-1.302;2024-02-26T06:34:56;6.40;;;1.70;;
48651;SDS011;34442;52.362;-1.302;2024-02-26T06:37:22;4.28;;;1.50;;
48651;SDS011;34442;52.362;-1.302;2024-02-26T06:39:48;4.43;;;1.77;;
48651;SDS011;34442;52.362;-1.302;2024-02-26T06:42:13;4.38;;;1.60;;
48651;SDS011;34442;52.362;-1.302;2024-02-26T06:44:38;6.40;;;1.55;;
48651;SDS011;34442;52.362;-1.302;2024-02-26T06:47:05;3.40;;;1.25;;
48651;SDS011;34442;52.362;-1.302;2024-02-26T06:49:30;3.08;;;1.35;;
48651;SDS011;34442;52.362;-1.302;2024-02-26T06:51:56;3.88;;;1.67;;
48651;SDS011;34442;52.362;-1.302;2024-02-26T06:54:21;5.70;;;1.80;;
48651;SDS011;34442;52.362;-1.302;2024-02-26T06:56:47;3.83;;;1.42;;
48651;SDS011;34442;52.362;-1.302;2024-02-26T06:59:12;3.28;;;1.50;;
48651;SDS011;34442;52.362;-1.302;2024-02-26T07:01:40;1.63;;;1.00;;
48651;SDS011;34442;52.362;-1.302;2024-02-26T07:04:06;3.40;;;1.38;;
48651;SDS011;34442;52.362;-1.302;2024-02-26T07:06:31;4.43;;;1.77;;
48651;SDS011;34442;52.362;-1.302;2024-02-26T07:08:57;4.78;;;1.55;;
48651;SDS011;34442;52.362;-1.302;2024-02-26T07:11:22;3.60;;;1.23;;
48651;SDS011;34442;52.362;-1.302;2024-02-26T07:13:48;4.63;;;1.50;;
48651;SDS011;34442;52.362;-1.302;2024-02-26T07:16:14;3.60;;;1.40;;
48651;SDS011;34442;52.362;-1.302;2024-02-26T07:18:40;5.03;;;1.50;;
48651;SDS011;34442;52.362;-1.302;2024-02-26T07:21:05;7.53;;;2.00;;
48651;SDS011;34442;52.362;-1.302;2024-02-26T07:23:31;3.72;;;1.60;;
48651;SDS011;34442;52.362;-1.302;2024-02-26T07:25:56;4.78;;;1.38;;
48651;SDS011;34442;52.362;-1.302;2024-02-26T07:28:22;2.13;;;1.20;;
48651;SDS011;34442;52.362;-1.302;2024-02-26T07:30:48;4.55;;;1.40;;
48651;SDS011;34442;52.362;-1.302;2024-02-26T07:33:13;3.75;;;1.73;;
48651;SDS011;34442;52.362;-1.302;2024-02-26T07:35:38;1.48;;;1.00;;
48651;SDS011;34442;52.362;-1.302;2024-02-26T07:38:04;5.72;;;1.73;;
48651;SDS011;34442;52.362;-1.302;2024-02-26T07:40:30;5.07;;;1.90;;
48651;SDS011;34442;52.362;-1.302;2024-02-26T07:42:56;8.63;;;2.33;;
48651;SDS011;34442;52.362;-1.302;2024-02-26T07:45:21;6.25;;;1.92;;
48651;SDS011;34442;52.362;-1.302;2024-02-26T07:47:47;2.85;;;1.30;;
48651;SDS011;34442;52.362;-1.302;2024-02-26T07:50:12;6.82;;;1.63;;
48651;SDS011;34442;52.362;-1.302;2024-02-26T07:52:38;3.00;;;1.23;;
48651;SDS011;34442;52.362;-1.302;2024-02-26T07:55:04;6.10;;;1.20;;
48651;SDS011;34442;52.362;-1.302;2024-02-26T07:57:33;5.72;;;1.75;;
48651;SDS011;34442;52.362;-1.302;2024-02-26T07:59:59;2.85;;;1.20;;
48651;SDS011;34442;52.362;-1.302;2024-02-26T08:02:24;4.63;;;1.50;;
48651;SDS011;34442;52.362;-1.302;2024-02-26T08:04:50;5.55;;;1.58;;
48651;SDS011;34442;52.362;-1.302;2024-02-26T08:07:16;3.10;;;1.35;;
48651;SDS011;34442;52.362;-1.302;2024-02-26T08:09:41;2.50;;;1.05;;
48651;SDS011;34442;52.362;-1.302;2024-02-26T08:12:07;4.88;;;1.80;;
48651;SDS011;34442;52.362;-1.302;2024-02-26T08:14:32;4.13;;;1.50;;
48651;SDS011;34442;52.362;-1.302;2024-02-26T08:16:58;2.75;;;1.25;;
48651;SDS011;34442;52.362;-1.302;2024-02-26T08:19:24;3.70;;;1.10;;
48651;SDS011;34442;52.362;-1.302;2024-02-26T08:21:49;2.55;;;1.30;;
48651;SDS011;34442;52.362;-1.302;2024-02-26T08:24:15;2.28;;;1.20;;
48651;SDS011;34442;52.362;-1.302;2024-02-26T08:26:40;3.80;;;1.55;;
48651;SDS011;34442;52.362;-1.302;2024-02-26T08:29:06;1.50;;;0.95;;
48651;SDS011;34442;52.362;-1.302;2024-02-26T08:31:31;3.30;;;1.05;;
48651;SDS011;34442;52.362;-1.302;2024-02-26T08:33:57;3.08;;;1.25;;
48651;SDS011;34442;52.362;-1.302;2024-02-26T08:36:23;2.00;;;1.20;;
48651;SDS011;34442;52.362;-1.302;2024-02-26T08:38:49;2.53;;;1.20;;
48651;SDS011;34442;52.362;-1.302;2024-02-26T08:41:14;5.63;;;1.33;;
48651;SDS011;34442;52.362;-1.302;2024-02-26T08:46:17;6.55;;;1.60;;
48651;SDS011;34442;52.362;-1.302;2024-02-26T08:48:43;4.88;;;1.70;;
48651;SDS011;34442;52.362;-1.302;2024-02-26T08:51:09;4.15;;;1.65;;
48651;SDS011;34442;52.362;-1.302;2024-02-26T08:53:35;3.17;;;1.35;;
48651;SDS011;34442;52.362;-1.302;2024-02-26T08:56:01;2.40;;;1.25;;
48651;SDS011;34442;52.362;-1.302;2024-02-26T08:58:30;3.28;;;1.33;;
48651;SDS011;34442;52.362;-1.302;2024-02-26T09:00:55;3.40;;;1.52;;
48651;SDS011;34442;52.362;-1.302;2024-02-26T09:03:21;4.50;;;1.90;;
48651;SDS011;34442;52.362;-1.302;2024-02-26T09:05:46;2.22;;;1.30;;
48651;SDS011;34442;52.362;-1.302;2024-02-26T09:08:12;3.78;;;1.60;;
48651;SDS011;34442;52.362;-1.302;2024-02-26T09:10:38;4.00;;;1.70;;
48651;SDS011;34442;52.362;-1.302;2024-02-26T09:13:04;3.10;;;1.20;;
48651;SDS011;34442;52.362;-1.302;2024-02-26T09:15:29;4.35;;;1.70;;
48651;SDS011;34442;52.362;-1.302;2024-02-26T09:17:55;3.42;;;1.38;;
48651;SDS011;34442;52.362;-1.302;2024-02-26T09:20:20;4.65;;;1.55;;
48651;SDS011;34442;52.362;-1.302;2024-02-26T09:22:46;3.30;;;1.30;;
48651;SDS011;34442;52.362;-1.302;2024-02-26T09:25:12;6.57;;;2.08;;
48651;SDS011;34442;52.362;-1.302;2024-02-26T09:27:39;3.92;;;1.30;;
48651;SDS011;34442;52.362;-1.302;2024-02-26T09:30:04;3.78;;;1.38;;
48651;SDS011;34442;52.362;-1.302;2024-02-26T09:32:30;4.55;;;2.05;;
48651;SDS011;34442;52.362;-1.302;2024-02-26T09:34:56;8.13;;;1.98;;
48651;SDS011;34442;52.362;-1.302;2024-02-26T09:37:21;3.97;;;1.73;;
48651;SDS011;34442;52.362;-1.302;2024-02-26T09:39:46;3.72;;;1.85;;
48651;SDS011;34442;52.362;-1.302;2024-02-26T09:42:12;1.40;;;1.00;;
48651;SDS011;34442;52.362;-1.302;2024-02-26T09:44:39;3.47;;;1.40;;
48651;SDS011;34442;52.362;-1.302;2024-02-26T09:47:10;3.70;;;1.17;;
48651;SDS011;34442;52.362;-1.302;2024-02-26T09:49:38;4.15;;;1.40;;
48651;SDS011;34442;52.362;-1.302;2024-02-26T09:52:07;2.97;;;1.15;;
48651;SDS011;34442;52.362;-1.302;2024-02-26T09:54:34;2.60;;;1.20;;
48651;SDS011;34442;52.362;-1.302;2024-02-26T09:57:00;4.38;;;2.00;;
48651;SDS011;34442;52.362;-1.302;2024-02-26T09:59:29;3.42;;;1.30;;
48651;SDS011;34442;52.362;-1.302;2024-02-26T10:01:56;2.83;;;1.40;;
48651;SDS011;34442;52.362;-1.302;2024-02-26T10:04:23;3.70;;;1.42;;
48651;SDS011;34442;52.362;-1.302;2024-02-26T10:06:50;1.92;;;0.95;;
48651;SDS011;34442;52.362;-1.302;2024-02-26T10:09:17;4.35;;;1.10;;
48651;SDS011;34442;52.362;-1.302;2024-02-26T10:11:43;2.60;;;1.00;;
48651;SDS011;34442;52.362;-1.302;2024-02-26T10:14:09;3.30;;;1.20;;
48651;SDS011;34442;52.362;-1.302;2024-02-26T10:16:34;5.90;;;1.67;;
48651;SDS011;34442;52.362;-1.302;2024-02-26T10:19:00;4.30;;;1.48;;
48651;SDS011;34442;52.362;-1.302;2024-02-26T10:21:26;3.67;;;1.20;;
48651;SDS011;34442;52.362;-1.302;2024-02-26T10:23:52;4.97;;;1.52;;
48651;SDS011;34442;52.362;-1.302;2024-02-26T10:26:17;2.45;;;1.05;;
48651;SDS011;34442;52.362;-1.302;2024-02-26T10:28:43;3.72;;;1.10;;
48651;SDS011;34442;52.362;-1.302;2024-02-26T10:31:09;6.00;;;1.58;;
48651;SDS011;34442;52.362;-1.302;2024-02-26T10:33:36;2.67;;;1.10;;
48651;SDS011;34442;52.362;-1.302;2024-02-26T10:36:03;4.50;;;1.63;;
48651;SDS011;34442;52.362;-1.302;2024-02-26T10:38:30;5.38;;;1.70;;
48651;SDS011;34442;52.362;-1.302;2024-02-26T10:40:57;4.70;;;1.40;;
48651;SDS011;34442;52.362;-1.302;2024-02-26T10:43:22;4.65;;;1.50;;
48651;SDS011;34442;52.362;-1.302;2024-02-26T10:45:48;4.28;;;1.10;;
48651;SDS011;34442;52.362;-1.302;2024-02-26T10:48:14;3.42;;;1.80;;
48651;SDS011;34442;52.362;-1.302;2024-02-26T10:50:45;4.68;;;1.38;;
48651;SDS011;34442;52.362;-1.302;2024-02-26T10:53:17;2.90;;;1.15;;
48651;SDS011;34442;52.362;-1.302;2024-02-26T10:55:49;2.92;;;0.90;;
48651;SDS011;34442;52.362;-1.302;2024-02-26T10:58:19;2.65;;;0.95;;
48651;SDS011;34442;52.362;-1.302;2024-02-26T11:00:46;2.80;;;1.33;;
48651;SDS011;34442;52.362;-1.302;2024-02-26T11:03:14;5.00;;;1.35;;
48651;SDS011;34442;52.362;-1.302;2024-02-26T11:05:48;2.35;;;1.30;;
48651;SDS011;34442;52.362;-1.302;2024-02-26T11:08:18;4.80;;;1.40;;
48651;SDS011;34442;52.362;-1.302;2024-02-26T11:10:48;3.00;;;1.50;;
48651;SDS011;34442;52.362;-1.302;2024-02-26T11:13:18;1.27;;;1.02;;
48651;SDS011;34442;52.362;-1.302;2024-02-26T11:15:44;4.32;;;1.30;;
48651;SDS011;34442;52.362;-1.302;2024-02-26T11:18:12;3.05;;;1.13;;
48651;SDS011;34442;52.362;-1.302;2024-02-26T11:20:40;4.10;;;1.95;;
48651;SDS011;34442;52.362;-1.302;2024-02-26T11:23:06;5.25;;;1.35;;
48651;SDS011;34442;52.362;-1.302;2024-02-26T11:25:32;2.63;;;1.13;;
48651;SDS011;34442;52.362;-1.302;2024-02-26T11:27:58;4.88;;;1.35;;
48651;SDS011;34442;52.362;-1.302;2024-02-26T11:30:29;5.00;;;1.55;;
48651;SDS011;34442;52.362;-1.302;2024-02-26T11:32:56;4.18;;;1.27;;
48651;SDS011;34442;52.362;-1.302;2024-02-26T11:35:22;3.00;;;1.30;;
48651;SDS011;34442;52.362;-1.302;2024-02-26T11:37:55;3.53;;;1.33;;
48651;SDS011;34442;52.362;-1.302;2024-02-26T11:40:22;3.40;;;1.33;;
48651;SDS011;34442;52.362;-1.302;2024-02-26T11:42:49;5.43;;;1.70;;
48651;SDS011;34442;52.362;-1.302;2024-02-26T11:46:17;3.88;;;1.30;;
48651;SDS011;34442;52.362;-1.302;2024-02-26T11:48:13;3.20;;;1.23;;
48651;SDS011;34442;52.362;-1.302;2024-02-26T11:50:48;3.30;;;1.23;;
48651;SDS011;34442;52.362;-1.302;2024-02-26T11:53:26;5.72;;;1.60;;
48651;SDS011;34442;52.362;-1.302;2024-02-26T11:58:44;2.58;;;1.40;;
48651;SDS011;34442;52.362;-1.302;2024-02-26T12:06:31;3.70;;;1.48;;
48651;SDS011;34442;52.362;-1.302;2024-02-26T12:09:05;3.90;;;1.60;;
48651;SDS011;34442;52.362;-1.302;2024-02-26T12:11:32;5.53;;;1.83;;
48651;SDS011;34442;52.362;-1.302;2024-02-26T12:13:57;5.40;;;2.08;;
48651;SDS011;34442;52.362;-1.302;2024-02-26T12:16:38;4.43;;;1.67;;
48651;SDS011;34442;52.362;-1.302;2024-02-26T12:19:07;4.47;;;1.75;;
48651;SDS011;34442;52.362;-1.302;2024-02-26T12:21:34;4.25;;;1.38;;
48651;SDS011;34442;52.362;-1.302;2024-02-26T12:24:34;2.38;;;1.40;;
48651;SDS011;34442;52.362;-1.302;2024-02-26T12:26:53;4.82;;;1.58;;
48651;SDS011;34442;52.362;-1.302;2024-02-26T12:29:18;2.17;;;1.30;;
48651;SDS011;34442;52.362;-1.302;2024-02-26T12:31:44;3.35;;;1.45;;
48651;SDS011;34442;52.362;-1.302;2024-02-26T12:34:09;3.28;;;1.30;;
48651;SDS011;34442;52.362;-1.302;2024-02-26T12:36:35;3.65;;;1.50;;
48651;SDS011;34442;52.362;-1.302;2024-02-26T12:39:01;2.83;;;1.35;;
48651;SDS011;34442;52.362;-1.302;2024-02-26T12:41:27;6.75;;;1.60;;
48651;SDS011;34442;52.362;-1.302;2024-02-26T12:43:55;6.13;;;1.40;;
48651;SDS011;34442;52.362;-1.302;2024-02-26T12:46:21;3.92;;;1.73;;
48651;SDS011;34442;52.362;-1.302;2024-02-26T12:48:46;6.15;;;1.75;;
48651;SDS011;34442;52.362;-1.302;2024-02-26T12:51:12;3.08;;;1.85;;
48651;SDS011;34442;52.362;-1.302;2024-02-26T12:53:40;5.68;;;1.60;;
48651;SDS011;34442;52.362;-1.302;2024-02-26T12:56:09;4.30;;;1.38;;
48651;SDS011;34442;52.362;-1.302;2024-02-26T12:58:36;4.25;;;1.38;;
48651;SDS011;34442;52.362;-1.302;2024-02-26T13:01:04;3.72;;;1.50;;
48651;SDS011;34442;52.362;-1.302;2024-02-26T13:03:30;3.35;;;1.50;;
48651;SDS011;34442;52.362;-1.302;2024-02-26T13:05:57;2.00;;;1.05;;
48651;SDS011;34442;52.362;-1.302;2024-02-26T13:08:24;1.27;;;0.95;;
48651;SDS011;34442;52.362;-1.302;2024-02-26T13:10:49;2.60;;;1.00;;
48651;SDS011;34442;52.362;-1.302;2024-02-26T13:13:18;2.03;;;1.08;;
48651;SDS011;34442;52.362;-1.302;2024-02-26T13:15:44;2.58;;;1.10;;
48651;SDS011;34442;52.362;-1.302;2024-02-26T13:18:11;5.32;;;1.20;;
48651;SDS011;34442;52.362;-1.302;2024-02-26T13:20:37;1.45;;;0.88;;
48651;SDS011;34442;52.362;-1.302;2024-02-26T13:23:06;2.42;;;1.10;;
48651;SDS011;34442;52.362;-1.302;2024-02-26T13:25:33;3.97;;;1.20;;
48651;SDS011;34442;52.362;-1.302;2024-02-26T13:28:06;2.63;;;1.25;;
48651;SDS011;34442;52.362;-1.302;2024-02-26T13:30:49;4.03;;;1.50;;
48651;SDS011;34442;52.362;-1.302;2024-02-26T13:33:16;2.40;;;1.20;;
48651;SDS011;34442;52.362;-1.302;2024-02-26T13:35:42;2.47;;;1.15;;
48651;SDS011;34442;52.362;-1.302;2024-02-26T13:38:10;4.63;;;1.33;;
48651;SDS011;34442;52.362;-1.302;2024-02-26T13:40:37;1.45;;;0.98;;
48651;SDS011;34442;52.362;-1.302;2024-02-26T13:43:03;2.67;;;1.17;;
48651;SDS011;34442;52.362;-1.302;2024-02-26T13:45:28;4.70;;;1.42;;
48651;SDS011;34442;52.362;-1.302;2024-02-26T13:47:54;2.10;;;1.20;;
48651;SDS011;34442;52.362;-1.302;2024-02-26T13:50:26;3.15;;;1.30;;
48651;SDS011;34442;52.362;-1.302;2024-02-26T13:52:51;2.10;;;0.80;;
48651;SDS011;34442;52.362;-1.302;2024-02-26T13:55:19;1.60;;;1.00;;
48651;SDS011;34442;52.362;-1.302;2024-02-26T13:57:45;2.90;;;1.20;;
48651;SDS011;34442;52.362;-1.302;2024-02-26T14:00:11;1.83;;;0.95;;
48651;SDS011;34442;52.362;-1.302;2024-02-26T14:02:38;3.00;;;1.45;;
48651;SDS011;34442;52.362;-1.302;2024-02-26T14:05:03;2.80;;;1.00;;
48651;SDS011;34442;52.362;-1.302;2024-02-26T14:07:29;1.55;;;1.00;;
48651;SDS011;34442;52.362;-1.302;2024-02-26T14:09:57;1.33;;;0.85;;
48651;SDS011;34442;52.362;-1.302;2024-02-26T14:12:23;2.45;;;0.98;;
48651;SDS011;34442;52.362;-1.302;2024-02-26T14:14:48;2.05;;;0.90;;
48651;SDS011;34442;52.362;-1.302;2024-02-26T14:17:14;1.30;;;0.90;;
48651;SDS011;34442;52.362;-1.302;2024-02-26T14:19:40;0.60;;;0.60;;
48651;SDS011;34442;52.362;-1.302;2024-02-26T14:22:12;2.10;;;0.70;;
48651;SDS011;34442;52.362;-1.302;2024-02-26T14:24:37;0.70;;;0.70;;
48651;SDS011;34442;52.362;-1.302;2024-02-26T14:27:02;1.10;;;0.88;;
48651;SDS011;34442;52.362;-1.302;2024-02-26T14:29:29;2.28;;;0.90;;
48651;SDS011;34442;52.362;-1.302;2024-02-26T14:31:54;2.28;;;1.48;;
48651;SDS011;34442;52.362;-1.302;2024-02-26T14:34:21;2.35;;;1.08;;
48651;SDS011;34442;52.362;-1.302;2024-02-26T14:36:47;1.98;;;0.88;;
48651;SDS011;34442;52.362;-1.302;2024-02-26T14:39:13;3.33;;;1.30;;